Time;durP1;ratioP1;P1;durP2;ratioP2;P2;SDS_P1;SDS_P2;PMS_P1;PMS_P2;Temp;Humidity;BMP_temperature;BMP_pressure;BME280_temperature;BME280_humidity;BME280_pressure;Samples;Min_cycle;Max_cycle;Signal;HPM_P1;HPM_P2
2022/10/29 00:02:02;;;;;;;11.68;3.22;;;;;;;;;;4904902;29;20497;-69
2022/10/29 00:04:28;;;;;;;10.73;2.70;;;;;;;;;;4904297;28;20122;-69
2022/10/29 00:06:53;;;;;;;9.20;3.22;;;;;;;;;;4905001;29;20136;-69
2022/10/29 00:09:19;;;;;;;7.55;2.42;;;;;;;;;;4904399;29;20067;-70
2022/10/29 00:11:44;;;;;;;8.20;2.85;;;;;;;;;;4904734;28;20063;-69
2022/10/29 00:14:09;;;;;;;13.25;2.80;;;;;;;;;;4904708;29;20044;-69
2022/10/29 00:16:37;;;;;;;5.32;2.22;;;;;;;;;;4903930;28;20389;-68
2022/10/29 00:19:03;;;;;;;6.88;2.40;;;;;;;;;;4903968;29;20063;-68
2022/10/29 00:21:29;;;;;;;5.68;2.70;;;;;;;;;;4905069;29;20044;-68
2022/10/29 00:23:56;;;;;;;6.43;2.60;;;;;;;;;;4904095;28;20052;-67
2022/10/29 00:26:23;;;;;;;6.38;2.92;;;;;;;;;;4904064;29;20051;-68
2022/10/29 00:28:53;;;;;;;7.90;2.70;;;;;;;;;;4904766;29;20079;-68
2022/10/29 00:31:19;;;;;;;11.48;2.67;;;;;;;;;;4903788;29;20051;-68
2022/10/29 00:33:45;;;;;;;9.40;2.60;;;;;;;;;;4904314;29;20449;-68
2022/10/29 00:36:17;;;;;;;11.95;2.80;;;;;;;;;;4904456;29;21033;-68
2022/10/29 00:38:42;;;;;;;10.13;2.88;;;;;;;;;;4902654;29;20044;-70
2022/10/29 00:41:12;;;;;;;11.82;2.92;;;;;;;;;;4903727;29;20404;-69
2022/10/29 00:43:42;;;;;;;7.55;2.60;;;;;;;;;;4904239;28;20562;-69
2022/10/29 00:46:12;;;;;;;12.77;2.50;;;;;;;;;;4903823;29;20044;-69
2022/10/29 00:48:47;;;;;;;8.70;3.22;;;;;;;;;;4904176;28;20154;-69
2022/10/29 00:51:14;;;;;;;5.32;2.90;;;;;;;;;;4903886;29;20139;-69
2022/10/29 00:53:47;;;;;;;5.65;2.30;;;;;;;;;;4904477;29;20210;-70
2022/10/29 00:56:13;;;;;;;6.25;2.28;;;;;;;;;;4904208;28;20135;-69
2022/10/29 00:58:39;;;;;;;11.43;2.83;;;;;;;;;;4904077;29;20052;-69
2022/10/29 01:01:04;;;;;;;6.18;3.20;;;;;;;;;;4904139;28;20167;-69
2022/10/29 01:03:30;;;;;;;7.40;2.50;;;;;;;;;;4904041;29;20152;-69
2022/10/29 01:05:55;;;;;;;6.95;2.60;;;;;;;;;;4901348;29;20930;-68
2022/10/29 01:08:21;;;;;;;8.18;2.45;;;;;;;;;;4902410;28;20040;-70
2022/10/29 01:11:04;;;;;;;8.07;2.30;;;;;;;;;;4902950;29;20088;-69
2022/10/29 01:13:41;;;;;;;3.60;2.42;;;;;;;;;;4902920;28;20111;-69
2022/10/29 01:16:35;;;;;;;5.72;2.60;;;;;;;;;;4898258;29;20063;-69
2022/10/29 01:19:13;;;;;;;10.15;2.65;;;;;;;;;;4915361;29;20146;-69
2022/10/29 01:21:41;;;;;;;8.45;2.10;;;;;;;;;;4904352;29;20090;-68
2022/10/29 01:24:42;;;;;;;8.30;2.63;;;;;;;;;;4904143;28;20195;-68
2022/10/29 01:27:42;;;;;;;4.45;2.33;;;;;;;;;;4914338;29;20062;-69
2022/10/29 01:30:17;;;;;;;7.18;2.70;;;;;;;;;;4911251;28;20075;-69
2022/10/29 01:33:02;;;;;;;7.30;3.05;;;;;;;;;;4903926;29;20078;-69
2022/10/29 01:35:33;;;;;;;6.63;2.80;;;;;;;;;;4903323;28;20052;-69
2022/10/29 01:37:58;;;;;;;7.53;2.60;;;;;;;;;;4903364;29;20047;-70
2022/10/29 01:40:28;;;;;;;7.07;2.63;;;;;;;;;;4903513;28;20048;-69
2022/10/29 01:43:21;;;;;;;8.27;2.58;;;;;;;;;;4904117;29;20044;-69
2022/10/29 01:45:54;;;;;;;5.03;2.38;;;;;;;;;;4903365;29;21039;-69
2022/10/29 01:48:26;;;;;;;8.48;2.88;;;;;;;;;;4902901;28;20055;-69
2022/10/29 01:50:54;;;;;;;6.47;2.83;;;;;;;;;;4903916;29;20060;-69
2022/10/29 01:53:21;;;;;;;6.80;2.70;;;;;;;;;;4904249;28;20040;-69
2022/10/29 01:55:47;;;;;;;5.88;2.70;;;;;;;;;;4903335;29;20055;-69
2022/10/29 01:58:13;;;;;;;7.32;2.95;;;;;;;;;;4904279;29;20040;-69
2022/10/29 02:00:44;;;;;;;11.48;2.67;;;;;;;;;;4905981;28;20116;-69
2022/10/29 02:03:18;;;;;;;12.95;2.75;;;;;;;;;;4912215;29;20052;-69
2022/10/29 02:05:59;;;;;;;17.38;2.95;;;;;;;;;;4915207;28;20060;-69
2022/10/29 02:08:31;;;;;;;9.43;2.70;;;;;;;;;;4914531;29;20107;-69
2022/10/29 02:11:18;;;;;;;5.93;2.53;;;;;;;;;;4904375;28;20052;-69
2022/10/29 02:13:51;;;;;;;10.45;2.72;;;;;;;;;;4906924;29;20512;-70
2022/10/29 02:16:18;;;;;;;9.52;3.17;;;;;;;;;;4906661;29;20078;-70
2022/10/29 02:18:46;;;;;;;6.03;3.17;;;;;;;;;;4906626;29;20408;-70
2022/10/29 02:21:19;;;;;;;6.57;2.80;;;;;;;;;;4906580;29;20054;-70
2022/10/29 02:23:45;;;;;;;12.18;3.17;;;;;;;;;;4906789;28;20052;-70
2022/10/29 02:26:11;;;;;;;10.73;2.72;;;;;;;;;;4906479;29;20066;-70
2022/10/29 02:28:37;;;;;;;8.32;3.22;;;;;;;;;;4905966;28;20402;-70
2022/10/29 02:31:02;;;;;;;6.07;2.22;;;;;;;;;;4906619;29;20085;-70
2022/10/29 02:33:28;;;;;;;9.93;2.88;;;;;;;;;;4905316;29;20043;-70
2022/10/29 02:35:53;;;;;;;7.22;2.83;;;;;;;;;;4904462;28;20048;-70
2022/10/29 02:38:19;;;;;;;7.20;2.58;;;;;;;;;;4906077;29;20138;-70
2022/10/29 02:40:44;;;;;;;9.90;2.88;;;;;;;;;;4906942;28;20048;-70
2022/10/29 02:43:10;;;;;;;11.82;3.00;;;;;;;;;;4905948;29;20043;-70
2022/10/29 02:45:35;;;;;;;7.88;2.80;;;;;;;;;;4905919;29;20520;-70
2022/10/29 02:48:00;;;;;;;8.60;2.80;;;;;;;;;;4906680;28;20231;-70
2022/10/29 02:50:26;;;;;;;6.40;2.78;;;;;;;;;;4906032;29;20079;-70
2022/10/29 02:52:51;;;;;;;10.02;2.88;;;;;;;;;;4904937;29;20060;-70
2022/10/29 02:55:17;;;;;;;9.85;3.15;;;;;;;;;;4903550;29;20102;-70
2022/10/29 02:57:43;;;;;;;7.07;2.70;;;;;;;;;;4906239;29;20504;-70
2022/10/29 03:00:10;;;;;;;6.18;2.85;;;;;;;;;;4906122;28;20139;-70
2022/10/29 03:02:35;;;;;;;8.13;2.78;;;;;;;;;;4904764;29;20080;-69
2022/10/29 03:05:01;;;;;;;8.98;2.70;;;;;;;;;;4905541;28;20580;-69
2022/10/29 03:07:26;;;;;;;10.38;2.80;;;;;;;;;;4905450;29;20040;-69
2022/10/29 03:09:51;;;;;;;9.13;2.35;;;;;;;;;;4905698;29;20059;-69
2022/10/29 03:12:17;;;;;;;9.63;2.88;;;;;;;;;;4903799;28;20060;-69
2022/10/29 03:14:42;;;;;;;9.35;2.65;;;;;;;;;;4904893;29;20051;-69
2022/10/29 03:17:08;;;;;;;9.43;2.78;;;;;;;;;;4902969;28;20044;-69
2022/10/29 03:19:33;;;;;;;8.40;3.55;;;;;;;;;;4904872;29;20048;-69
2022/10/29 03:21:59;;;;;;;10.77;3.00;;;;;;;;;;4904730;29;20048;-69
2022/10/29 03:24:24;;;;;;;6.85;2.67;;;;;;;;;;4904836;28;20056;-68
2022/10/29 03:26:50;;;;;;;5.53;2.70;;;;;;;;;;4904049;29;20822;-70
2022/10/29 03:29:15;;;;;;;11.02;2.35;;;;;;;;;;4904788;29;20052;-69
2022/10/29 03:31:40;;;;;;;5.85;2.92;;;;;;;;;;4904132;29;20058;-69
2022/10/29 03:34:06;;;;;;;9.55;3.38;;;;;;;;;;4905107;29;20572;-69
2022/10/29 03:36:31;;;;;;;7.10;3.15;;;;;;;;;;4902957;28;20457;-70
2022/10/29 03:38:57;;;;;;;10.90;3.30;;;;;;;;;;4904218;29;20481;-69
2022/10/29 03:41:22;;;;;;;8.50;2.78;;;;;;;;;;4904789;29;20131;-69
2022/10/29 03:43:48;;;;;;;6.93;3.08;;;;;;;;;;4904359;28;20281;-69
2022/10/29 03:46:13;;;;;;;5.15;3.08;;;;;;;;;;4903958;29;20043;-70
2022/10/29 03:48:38;;;;;;;10.13;4.13;;;;;;;;;;4917850;28;20509;-69
2022/10/29 03:51:05;;;;;;;5.72;3.10;;;;;;;;;;4903583;29;20044;-69
2022/10/29 03:53:31;;;;;;;10.10;3.63;;;;;;;;;;4903216;29;20048;-69
2022/10/29 03:55:57;;;;;;;8.85;2.80;;;;;;;;;;4903404;28;20052;-69
2022/10/29 03:58:23;;;;;;;14.07;3.78;;;;;;;;;;4902374;29;20052;-69
2022/10/29 04:01:06;;;;;;;8.85;3.20;;;;;;;;;;4902725;28;20083;-69
2022/10/29 04:03:33;;;;;;;7.93;3.00;;;;;;;;;;4918093;29;20059;-69
2022/10/29 04:06:01;;;;;;;9.80;3.35;;;;;;;;;;4902462;29;20052;-69
2022/10/29 04:08:26;;;;;;;8.32;3.28;;;;;;;;;;4902849;28;20047;-69
2022/10/29 04:10:52;;;;;;;6.63;3.22;;;;;;;;;;4902016;29;20640;-69
2022/10/29 04:13:18;;;;;;;8.88;2.90;;;;;;;;;;4902262;28;20048;-69
2022/10/29 04:15:44;;;;;;;6.70;3.13;;;;;;;;;;4902624;29;20074;-69
2022/10/29 04:18:11;;;;;;;9.65;3.45;;;;;;;;;;4903001;29;20599;-69
2022/10/29 04:20:37;;;;;;;7.07;2.70;;;;;;;;;;4902928;28;20055;-69
2022/10/29 04:23:03;;;;;;;10.07;3.25;;;;;;;;;;4902987;29;20044;-69
2022/10/29 04:25:29;;;;;;;13.38;3.47;;;;;;;;;;4902065;28;20064;-69
2022/10/29 04:27:54;;;;;;;8.50;2.88;;;;;;;;;;4904292;29;20052;-70
2022/10/29 04:30:21;;;;;;;7.15;2.75;;;;;;;;;;4902942;29;20047;-69
2022/10/29 04:32:46;;;;;;;10.52;3.55;;;;;;;;;;4902528;29;20066;-69
2022/10/29 04:35:12;;;;;;;6.72;3.17;;;;;;;;;;4902385;29;20044;-69
2022/10/29 04:37:37;;;;;;;12.55;3.72;;;;;;;;;;4903281;29;20047;-70
2022/10/29 04:40:03;;;;;;;10.70;4.03;;;;;;;;;;4903636;28;20518;-70
2022/10/29 04:42:28;;;;;;;9.60;3.00;;;;;;;;;;4901744;29;20883;-69
2022/10/29 04:44:54;;;;;;;6.78;3.20;;;;;;;;;;4901657;28;21338;-69
2022/10/29 04:47:19;;;;;;;7.65;3.33;;;;;;;;;;4903127;29;20270;-70
2022/10/29 04:49:45;;;;;;;6.68;2.70;;;;;;;;;;4901331;29;20051;-70
2022/10/29 04:52:10;;;;;;;6.72;2.90;;;;;;;;;;4903482;28;20040;-69
2022/10/29 04:54:36;;;;;;;7.07;2.92;;;;;;;;;;4903631;29;20055;-70
2022/10/29 04:57:01;;;;;;;11.77;3.25;;;;;;;;;;4903716;28;20070;-70
2022/10/29 04:59:26;;;;;;;6.85;3.20;;;;;;;;;;4904189;29;20048;-69
2022/10/29 05:01:52;;;;;;;5.97;2.75;;;;;;;;;;4903513;29;20068;-68
2022/10/29 05:04:17;;;;;;;8.77;3.20;;;;;;;;;;4898143;29;20067;-68
2022/10/29 05:06:43;;;;;;;5.05;2.83;;;;;;;;;;4902003;29;20135;-68
2022/10/29 05:09:08;;;;;;;15.75;3.03;;;;;;;;;;4903266;28;21017;-69
2022/10/29 05:11:34;;;;;;;11.93;2.65;;;;;;;;;;4903661;29;20051;-69
2022/10/29 05:13:59;;;;;;;17.52;3.17;;;;;;;;;;4903784;29;20174;-69
2022/10/29 05:16:25;;;;;;;11.45;2.90;;;;;;;;;;4902764;28;20505;-69
2022/10/29 05:18:50;;;;;;;6.13;3.33;;;;;;;;;;4903141;29;20044;-69
2022/10/29 05:21:16;;;;;;;10.13;2.58;;;;;;;;;;4901743;28;20048;-68
2022/10/29 05:23:41;;;;;;;8.43;2.70;;;;;;;;;;4903172;29;20079;-68
2022/10/29 05:26:06;;;;;;;12.32;2.85;;;;;;;;;;4902511;29;20091;-68
2022/10/29 05:28:32;;;;;;;10.40;2.60;;;;;;;;;;4901685;28;20052;-69
2022/10/29 05:31:00;;;;;;;10.55;3.38;;;;;;;;;;4902217;29;20126;-68
2022/10/29 05:33:25;;;;;;;6.05;2.90;;;;;;;;;;4905111;28;20040;-68
2022/10/29 05:35:51;;;;;;;9.30;2.58;;;;;;;;;;4905882;29;20043;-69
2022/10/29 05:38:17;;;;;;;13.57;2.55;;;;;;;;;;4903069;29;20638;-70
2022/10/29 05:40:43;;;;;;;8.93;2.60;;;;;;;;;;4903102;29;20047;-69
2022/10/29 05:43:15;;;;;;;6.22;2.47;;;;;;;;;;4902129;29;20076;-70
2022/10/29 05:45:41;;;;;;;16.35;2.53;;;;;;;;;;4902708;29;20094;-69
2022/10/29 05:48:07;;;;;;;10.48;2.45;;;;;;;;;;4901663;29;20424;-69
2022/10/29 05:50:33;;;;;;;6.82;3.28;;;;;;;;;;4916368;28;20111;-68
2022/10/29 05:53:04;;;;;;;9.32;2.13;;;;;;;;;;4918341;29;20048;-70
2022/10/29 05:55:32;;;;;;;6.23;2.33;;;;;;;;;;4903926;29;20175;-69
2022/10/29 05:58:02;;;;;;;12.00;2.70;;;;;;;;;;4903620;29;20055;-70
2022/10/29 06:00:29;;;;;;;7.57;2.15;;;;;;;;;;4904531;29;20051;-70
2022/10/29 06:02:55;;;;;;;7.43;2.38;;;;;;;;;;4903746;29;20056;-69
2022/10/29 06:05:21;;;;;;;12.30;3.33;;;;;;;;;;4904694;29;20056;-69
2022/10/29 06:07:53;;;;;;;11.35;3.25;;;;;;;;;;4904945;29;20048;-69
2022/10/29 06:10:18;;;;;;;;;;;;;;;;;;4904962;29;20091;-74
2022/10/29 06:12:44;;;;;;;8.80;2.40;;;;;;;;;;4903668;29;19919;-69
2022/10/29 06:15:09;;;;;;;5.57;2.53;;;;;;;;;;4903823;29;20439;-69
2022/10/29 06:17:40;;;;;;;6.53;2.40;;;;;;;;;;4905334;29;20048;-69
2022/10/29 06:20:06;;;;;;;6.72;2.30;;;;;;;;;;4904018;28;20080;-69
2022/10/29 06:22:31;;;;;;;12.05;2.65;;;;;;;;;;4919439;29;20078;-71
2022/10/29 06:24:57;;;;;;;6.53;2.88;;;;;;;;;;4902827;29;20127;-70
2022/10/29 06:27:22;;;;;;;10.27;2.50;;;;;;;;;;4904690;29;20085;-71
2022/10/29 06:29:48;;;;;;;5.20;2.10;;;;;;;;;;4904457;29;20072;-71
2022/10/29 06:32:13;;;;;;;12.50;2.80;;;;;;;;;;4903740;29;20047;-71
2022/10/29 06:34:39;;;;;;;10.45;2.33;;;;;;;;;;4902914;29;20056;-71
2022/10/29 06:37:04;;;;;;;7.68;2.63;;;;;;;;;;4903916;29;20044;-69
2022/10/29 06:39:29;;;;;;;5.53;2.13;;;;;;;;;;4904559;28;20052;-70
2022/10/29 06:41:55;;;;;;;8.30;2.50;;;;;;;;;;4903807;29;20140;-70
2022/10/29 06:44:20;;;;;;;4.20;1.95;;;;;;;;;;4901800;29;20044;-70
2022/10/29 06:46:46;;;;;;;17.50;3.13;;;;;;;;;;4903121;29;20052;-70
2022/10/29 06:49:11;;;;;;;10.50;2.47;;;;;;;;;;4902596;29;20044;-71
2022/10/29 06:51:36;;;;;;;10.02;2.28;;;;;;;;;;4903977;29;20420;-71
2022/10/29 06:54:02;;;;;;;15.65;2.90;;;;;;;;;;4904607;29;20047;-70
2022/10/29 06:56:27;;;;;;;7.50;2.15;;;;;;;;;;4903874;29;20048;-70
2022/10/29 06:58:53;;;;;;;9.18;2.22;;;;;;;;;;4904183;29;20527;-70
2022/10/29 07:01:18;;;;;;;9.82;2.22;;;;;;;;;;4905141;29;20207;-70
2022/10/29 07:03:44;;;;;;;6.72;1.90;;;;;;;;;;4895408;29;20058;-71
2022/10/29 07:06:09;;;;;;;7.85;2.60;;;;;;;;;;4903901;29;20052;-71
2022/10/29 07:08:35;;;;;;;10.30;2.72;;;;;;;;;;4902403;28;20047;-71
2022/10/29 07:11:01;;;;;;;10.52;2.40;;;;;;;;;;4903605;29;20055;-71
2022/10/29 07:13:27;;;;;;;6.65;2.33;;;;;;;;;;4903903;29;20040;-71
2022/10/29 07:15:53;;;;;;;8.35;2.20;;;;;;;;;;4901596;29;20070;-71
2022/10/29 07:18:18;;;;;;;7.15;2.15;;;;;;;;;;4902621;29;20051;-71
2022/10/29 07:20:44;;;;;;;11.55;2.75;;;;;;;;;;4902731;28;20084;-71
2022/10/29 07:23:11;;;;;;;13.93;2.78;;;;;;;;;;4903484;29;20058;-71
2022/10/29 07:25:38;;;;;;;6.47;2.10;;;;;;;;;;4905254;29;20123;-71
2022/10/29 07:28:15;;;;;;;6.25;2.45;;;;;;;;;;4919427;28;20426;-71
2022/10/29 07:30:41;;;;;;;14.52;2.50;;;;;;;;;;4903678;29;20093;-71
2022/10/29 07:33:07;;;;;;;7.32;2.67;;;;;;;;;;4903922;29;20996;-71
2022/10/29 07:35:33;;;;;;;7.40;2.30;;;;;;;;;;4904661;28;20524;-71
2022/10/29 07:38:00;;;;;;;6.90;2.50;;;;;;;;;;4905495;29;20063;-71
2022/10/29 07:40:25;;;;;;;8.23;2.45;;;;;;;;;;4903993;28;20052;-71
2022/10/29 07:42:51;;;;;;;8.13;2.78;;;;;;;;;;4904904;29;20099;-71
2022/10/29 07:45:17;;;;;;;5.35;2.47;;;;;;;;;;4904445;29;20086;-71
2022/10/29 07:47:42;;;;;;;7.53;2.00;;;;;;;;;;4903844;28;20091;-72
2022/10/29 07:50:08;;;;;;;8.20;2.60;;;;;;;;;;4903545;29;20048;-72
2022/10/29 07:52:34;;;;;;;6.18;2.50;;;;;;;;;;4903257;28;20071;-71
2022/10/29 07:55:01;;;;;;;13.43;3.58;;;;;;;;;;4904004;29;20709;-70
2022/10/29 07:57:27;;;;;;;7.93;2.55;;;;;;;;;;4903570;29;20068;-71
2022/10/29 07:59:52;;;;;;;7.47;1.92;;;;;;;;;;4919140;28;20123;-72
2022/10/29 08:02:18;;;;;;;15.27;2.97;;;;;;;;;;4904280;29;20416;-72
2022/10/29 08:04:43;;;;;;;8.38;2.03;;;;;;;;;;4902046;28;20060;-72
2022/10/29 08:07:09;;;;;;;7.72;2.95;;;;;;;;;;4919299;29;20047;-72
2022/10/29 08:09:34;;;;;;;10.38;2.22;;;;;;;;;;4904405;29;20056;-73
2022/10/29 08:12:00;;;;;;;10.43;2.65;;;;;;;;;;4904802;29;20059;-72
2022/10/29 08:14:25;;;;;;;6.78;2.15;;;;;;;;;;4902182;29;21002;-72
2022/10/29 08:16:54;;;;;;;10.93;2.97;;;;;;;;;;4903919;28;20056;-72
2022/10/29 08:19:19;;;;;;;10.00;2.80;;;;;;;;;;4904352;29;20044;-72
2022/10/29 08:21:45;;;;;;;9.20;2.80;;;;;;;;;;4904478;29;20063;-72
2022/10/29 08:24:11;;;;;;;6.88;2.38;;;;;;;;;;4903909;28;20051;-72
2022/10/29 08:26:36;;;;;;;9.13;2.08;;;;;;;;;;4901963;29;20048;-72
2022/10/29 08:29:02;;;;;;;12.48;2.70;;;;;;;;;;4904429;28;20071;-72
2022/10/29 08:31:28;;;;;;;6.65;3.10;;;;;;;;;;4902745;29;20501;-72
2022/10/29 08:33:53;;;;;;;5.95;2.47;;;;;;;;;;4903033;29;20048;-72
2022/10/29 08:36:19;;;;;;;10.60;2.67;;;;;;;;;;4903232;28;20071;-72
2022/10/29 08:38:46;;;;;;;6.78;2.47;;;;;;;;;;4902297;29;20119;-72
2022/10/29 08:41:17;;;;;;;7.15;2.40;;;;;;;;;;4904212;28;20047;-72
2022/10/29 08:44:09;;;;;;;6.88;2.20;;;;;;;;;;4904250;29;20055;-72
2022/10/29 08:46:48;;;;;;;13.50;3.03;;;;;;;;;;4902427;28;20142;-72
2022/10/29 08:49:25;;;;;;;9.35;2.70;;;;;;;;;;4903986;29;20460;-72
2022/10/29 08:51:59;;;;;;;11.25;2.63;;;;;;;;;;4903775;29;20047;-72
2022/10/29 08:54:29;;;;;;;10.18;2.90;;;;;;;;;;4903493;28;20403;-72
2022/10/29 08:56:58;;;;;;;7.63;2.20;;;;;;;;;;4902136;29;21269;-72
2022/10/29 08:59:26;;;;;;;9.18;2.33;;;;;;;;;;4902803;29;20052;-72
2022/10/29 09:01:52;;;;;;;12.93;2.50;;;;;;;;;;4903993;28;20062;-72
2022/10/29 09:04:20;;;;;;;7.55;2.30;;;;;;;;;;4903168;29;20131;-72
2022/10/29 09:06:52;;;;;;;14.60;2.50;;;;;;;;;;4902445;28;20056;-72
2022/10/29 09:09:30;;;;;;;12.32;2.58;;;;;;;;;;4906524;29;20528;-72
2022/10/29 09:11:59;;;;;;;14.05;3.13;;;;;;;;;;4907553;29;20048;-72
2022/10/29 09:14:38;;;;;;;8.20;2.03;;;;;;;;;;4905810;29;20068;-69
2022/10/29 09:17:19;;;;;;;14.32;3.35;;;;;;;;;;4907241;29;20432;-70
2022/10/29 09:20:17;;;;;;;8.63;2.85;;;;;;;;;;4906831;28;20040;-71
2022/10/29 09:22:51;;;;;;;10.00;2.70;;;;;;;;;;4906574;29;20544;-70
2022/10/29 09:25:30;;;;;;;14.82;2.90;;;;;;;;;;4906906;28;20043;-71
2022/10/29 09:28:27;;;;;;;15.32;2.70;;;;;;;;;;4907684;29;20105;-70
2022/10/29 09:31:02;;;;;;;11.18;2.58;;;;;;;;;;4892000;29;20055;-71
2022/10/29 09:33:28;;;;;;;10.07;2.42;;;;;;;;;;4906561;29;20048;-70
2022/10/29 09:35:56;;;;;;;5.50;2.58;;;;;;;;;;4907407;28;20102;-70
2022/10/29 09:38:25;;;;;;;15.05;2.90;;;;;;;;;;4905022;29;20056;-71
2022/10/29 09:40:51;;;;;;;5.47;2.38;;;;;;;;;;4905485;29;20939;-70
2022/10/29 09:43:44;;;;;;;13.52;2.72;;;;;;;;;;4906490;29;20058;-72
2022/10/29 09:46:40;;;;;;;9.32;2.58;;;;;;;;;;4906302;29;20151;-72
2022/10/29 09:49:12;;;;;;;12.57;2.67;;;;;;;;;;4904389;29;20126;-70
2022/10/29 09:51:59;;;;;;;9.68;3.17;;;;;;;;;;4906978;29;20048;-72
2022/10/29 09:54:28;;;;;;;13.07;3.08;;;;;;;;;;4905638;28;20438;-73
2022/10/29 09:56:54;;;;;;;7.47;2.35;;;;;;;;;;4906504;29;20731;-70
2022/10/29 09:59:37;;;;;;;16.63;3.05;;;;;;;;;;4906846;28;20054;-73
2022/10/29 10:02:29;;;;;;;10.40;2.85;;;;;;;;;;4906989;29;20052;-71
2022/10/29 10:05:00;;;;;;;8.48;2.60;;;;;;;;;;4918938;29;20113;-70
2022/10/29 10:07:26;;;;;;;6.15;2.85;;;;;;;;;;4906844;29;20054;-71
2022/10/29 10:09:59;;;;;;;13.95;2.53;;;;;;;;;;4906877;28;20063;-72
2022/10/29 10:12:43;;;;;;;13.90;3.50;;;;;;;;;;4906318;29;20386;-71
2022/10/29 10:15:15;;;;;;;15.73;3.75;;;;;;;;;;4905504;28;20048;-71
2022/10/29 10:18:18;;;;;;;8.10;3.22;;;;;;;;;;4906735;29;20115;-71
2022/10/29 10:20:48;;;;;;;13.32;3.33;;;;;;;;;;4915989;28;20142;-71
2022/10/29 10:23:24;;;;;;;10.77;2.88;;;;;;;;;;4906487;29;20062;-70
2022/10/29 10:25:51;;;;;;;10.00;3.08;;;;;;;;;;4905259;29;20135;-71
2022/10/29 10:28:21;;;;;;;13.07;2.67;;;;;;;;;;4906177;28;20047;-71
2022/10/29 10:31:13;;;;;;;8.73;2.53;;;;;;;;;;4905618;29;20421;-71
2022/10/29 10:33:52;;;;;;;14.55;3.30;;;;;;;;;;4906691;28;20048;-71
2022/10/29 10:36:22;;;;;;;7.93;2.50;;;;;;;;;;4919380;29;20075;-71
2022/10/29 10:38:53;;;;;;;7.97;2.05;;;;;;;;;;4904735;28;20139;-71
2022/10/29 10:41:29;;;;;;;10.68;2.03;;;;;;;;;;4905710;29;20059;-71
2022/10/29 10:43:59;;;;;;;9.82;2.05;;;;;;;;;;4920510;29;20067;-71
2022/10/29 10:46:34;;;;;;;8.00;2.17;;;;;;;;;;4905049;28;20048;-72
2022/10/29 10:49:01;;;;;;;10.13;2.85;;;;;;;;;;4905365;29;20055;-71
2022/10/29 10:51:32;;;;;;;10.57;2.20;;;;;;;;;;4905965;28;20059;-72
2022/10/29 10:54:02;;;;;;;11.45;2.30;;;;;;;;;;4906119;29;20052;-72
2022/10/29 10:56:28;;;;;;;9.10;2.30;;;;;;;;;;4904765;28;20621;-72
2022/10/29 10:59:08;;;;;;;8.70;2.20;;;;;;;;;;4903707;29;20060;-70
2022/10/29 11:01:38;;;;;;;8.55;2.25;;;;;;;;;;4905595;29;20052;-70
2022/10/29 11:04:12;;;;;;;13.15;2.60;;;;;;;;;;4902615;28;20084;-71
2022/10/29 11:06:46;;;;;;;14.43;2.60;;;;;;;;;;4903583;29;20729;-70
2022/10/29 11:09:21;;;;;;;14.23;2.70;;;;;;;;;;4904352;28;20930;-71
2022/10/29 11:12:01;;;;;;;14.35;2.80;;;;;;;;;;4904538;29;20044;-70
2022/10/29 11:14:35;;;;;;;8.02;2.35;;;;;;;;;;4903680;28;20147;-72
2022/10/29 11:17:03;;;;;;;15.93;2.22;;;;;;;;;;4905154;29;20056;-72
2022/10/29 11:19:37;;;;;;;12.00;2.70;;;;;;;;;;4905803;29;20413;-72
2022/10/29 11:22:07;;;;;;;10.10;2.38;;;;;;;;;;4904999;28;20052;-72
2022/10/29 11:25:13;;;;;;;15.07;3.00;;;;;;;;;;4904691;29;20052;-72
2022/10/29 11:27:56;;;;;;;7.75;2.70;;;;;;;;;;4911037;28;20052;-70
2022/10/29 11:30:22;;;;;;;12.68;2.55;;;;;;;;;;4904624;29;20044;-71
2022/10/29 11:33:08;;;;;;;10.18;2.50;;;;;;;;;;4904137;28;20063;-71
2022/10/29 11:36:05;;;;;;;15.65;2.95;;;;;;;;;;4904918;29;20083;-70
2022/10/29 11:38:47;;;;;;;9.45;2.50;;;;;;;;;;4901909;29;20107;-68
2022/10/29 11:41:32;;;;;;;7.95;2.20;;;;;;;;;;4904308;29;20079;-71
2022/10/29 11:43:57;;;;;;;7.90;2.33;;;;;;;;;;4903725;28;20063;-69
2022/10/29 11:46:26;;;;;;;9.07;2.42;;;;;;;;;;4903249;29;20048;-69
2022/10/29 11:49:05;;;;;;;9.15;2.33;;;;;;;;;;4903517;29;20544;-70
2022/10/29 11:52:31;;;;;;;8.27;2.42;;;;;;;;;;4904813;29;20087;-69
2022/10/29 11:55:30;;;;;;;9.93;2.70;;;;;;;;;;4904109;29;20052;-69
2022/10/29 11:58:15;;;;;;;10.52;2.47;;;;;;;;;;4904884;29;20576;-69
2022/10/29 12:00:59;;;;;;;11.50;2.50;;;;;;;;;;4903371;29;20102;-69
2022/10/29 12:03:34;;;;;;;8.02;2.35;;;;;;;;;;4904115;29;20048;-69
2022/10/29 12:06:17;;;;;;;14.60;2.67;;;;;;;;;;4904082;28;20048;-69
2022/10/29 12:08:48;;;;;;;12.63;2.30;;;;;;;;;;4903813;29;20062;-69
2022/10/29 12:11:38;;;;;;;10.23;2.67;;;;;;;;;;4904357;28;20092;-68
2022/10/29 12:14:32;;;;;;;10.07;2.72;;;;;;;;;;4904391;29;20056;-69
2022/10/29 12:17:13;;;;;;;14.35;2.47;;;;;;;;;;4915004;29;20051;-69
2022/10/29 12:20:03;;;;;;;8.93;2.33;;;;;;;;;;4904096;29;20058;-68
2022/10/29 12:22:52;;;;;;;15.13;2.58;;;;;;;;;;4903101;28;20052;-68
2022/10/29 12:25:29;;;;;;;12.57;3.05;;;;;;;;;;4903890;29;20061;-68
2022/10/29 12:28:38;;;;;;;8.10;2.53;;;;;;;;;;4901162;29;20425;-69
2022/10/29 12:31:03;;;;;;;28.55;2.35;;;;;;;;;;4914901;29;20381;-68
2022/10/29 12:34:00;;;;;;;10.77;2.58;;;;;;;;;;4903331;28;20068;-68
2022/10/29 12:36:36;;;;;;;9.77;2.83;;;;;;;;;;4902489;29;20043;-70
2022/10/29 12:39:06;;;;;;;14.15;2.95;;;;;;;;;;4902040;28;20471;-68
2022/10/29 12:41:46;;;;;;;10.25;2.25;;;;;;;;;;4903142;29;20048;-71
2022/10/29 12:44:34;;;;;;;6.80;2.20;;;;;;;;;;4902187;29;20087;-70
2022/10/29 12:47:16;;;;;;;10.27;2.45;;;;;;;;;;4914773;29;20148;-72
2022/10/29 12:49:44;;;;;;;9.73;2.35;;;;;;;;;;4902038;29;20052;-70
2022/10/29 12:52:18;;;;;;;15.55;2.95;;;;;;;;;;4902597;28;21437;-69
2022/10/29 12:54:45;;;;;;;16.30;2.88;;;;;;;;;;4902602;29;20497;-71
2022/10/29 12:57:11;;;;;;;13.02;2.60;;;;;;;;;;4901382;29;20040;-72
2022/10/29 12:59:37;;;;;;;13.52;2.60;;;;;;;;;;4903090;29;20055;-71
2022/10/29 13:02:17;;;;;;;6.97;2.15;;;;;;;;;;4903071;29;20473;-71
2022/10/29 13:05:10;;;;;;;11.48;2.45;;;;;;;;;;4902754;28;20060;-72
2022/10/29 13:07:55;;;;;;;14.50;2.30;;;;;;;;;;4902116;29;20493;-72
2022/10/29 13:10:21;;;;;;;11.05;1.92;;;;;;;;;;4904920;28;20062;-72
2022/10/29 13:13:14;;;;;;;7.50;2.05;;;;;;;;;;4902384;29;20052;-71
2022/10/29 13:15:55;;;;;;;12.02;2.50;;;;;;;;;;4903240;28;20052;-72
2022/10/29 13:18:41;;;;;;;11.93;3.00;;;;;;;;;;4903757;29;20071;-70
2022/10/29 13:21:07;;;;;;;13.32;2.55;;;;;;;;;;4914738;29;20070;-74
2022/10/29 13:23:34;;;;;;;16.85;3.20;;;;;;;;;;4903456;29;20040;-70
2022/10/29 13:26:01;;;;;;;15.25;3.50;;;;;;;;;;4903165;28;20048;-68
2022/10/29 13:28:26;;;;;;;17.08;2.28;;;;;;;;;;4902913;29;20151;-70
2022/10/29 13:30:58;;;;;;;13.15;2.28;;;;;;;;;;4903494;28;20116;-72
2022/10/29 13:33:26;;;;;;;11.50;2.83;;;;;;;;;;4903105;29;20482;-72
2022/10/29 13:35:55;;;;;;;13.75;2.97;;;;;;;;;;4903166;29;20052;-72
2022/10/29 13:38:53;;;;;;;11.02;3.08;;;;;;;;;;4903157;28;20048;-72
2022/10/29 13:41:26;;;;;;;12.07;2.28;;;;;;;;;;4888883;29;20067;-72
2022/10/29 13:44:03;;;;;;;7.15;2.28;;;;;;;;;;4903041;28;20139;-72
2022/10/29 13:46:47;;;;;;;11.60;2.20;;;;;;;;;;4901983;29;20048;-72
2022/10/29 13:49:13;;;;;;;14.80;2.80;;;;;;;;;;4902471;29;21126;-69
2022/10/29 13:51:46;;;;;;;9.68;2.30;;;;;;;;;;4903638;29;20902;-69
2022/10/29 13:54:34;;;;;;;11.68;2.40;;;;;;;;;;4904353;29;20055;-70
2022/10/29 13:57:22;;;;;;;15.23;3.33;;;;;;;;;;4903766;29;20058;-70
2022/10/29 14:00:00;;;;;;;11.68;2.63;;;;;;;;;;4909567;29;20048;-70
2022/10/29 14:02:41;;;;;;;8.98;2.40;;;;;;;;;;4905751;28;20050;-70
2022/10/29 14:05:29;;;;;;;13.50;2.60;;;;;;;;;;4906445;29;20059;-71
2022/10/29 14:08:12;;;;;;;11.40;2.97;;;;;;;;;;4906530;28;20094;-71
2022/10/29 14:10:40;;;;;;;14.02;2.28;;;;;;;;;;4904774;29;20048;-71
2022/10/29 14:13:29;;;;;;;8.65;2.30;;;;;;;;;;4905435;29;20537;-70
2022/10/29 14:16:08;;;;;;;12.90;2.20;;;;;;;;;;4905045;29;20123;-70
2022/10/29 14:18:45;;;;;;;17.77;2.50;;;;;;;;;;4906030;28;20059;-70
2022/10/29 14:21:21;;;;;;;12.05;2.08;;;;;;;;;;4906498;29;20402;-69
2022/10/29 14:23:57;;;;;;;14.25;2.58;;;;;;;;;;4906328;29;20426;-71
2022/10/29 14:26:24;;;;;;;13.57;2.75;;;;;;;;;;4905505;28;20416;-71
2022/10/29 14:28:51;;;;;;;10.70;2.53;;;;;;;;;;4906121;29;21050;-70
2022/10/29 14:31:24;;;;;;;15.38;2.55;;;;;;;;;;4906003;28;20055;-70
2022/10/29 14:34:26;;;;;;;11.32;2.67;;;;;;;;;;4905916;29;20044;-69
2022/10/29 14:36:57;;;;;;;17.00;2.57;;;;;;;;;;4905982;29;20087;-69
2022/10/29 14:39:38;;;;;;;13.43;2.42;;;;;;;;;;4906508;29;20127;-72
2022/10/29 14:42:16;;;;;;;17.30;2.85;;;;;;;;;;4905533;29;20063;-70
2022/10/29 14:44:47;;;;;;;10.30;3.05;;;;;;;;;;4904517;28;20048;-70
2022/10/29 14:47:21;;;;;;;11.77;2.97;;;;;;;;;;4905370;29;21232;-71
2022/10/29 14:49:48;;;;;;;13.75;2.90;;;;;;;;;;4897916;29;20048;-72
2022/10/29 14:52:27;;;;;;;16.35;3.03;;;;;;;;;;4904228;28;20075;-72
2022/10/29 14:54:53;;;;;;;18.08;3.10;;;;;;;;;;4904349;29;20051;-72
2022/10/29 14:57:21;;;;;;;19.30;3.30;;;;;;;;;;4899141;28;20048;-71
2022/10/29 14:59:53;;;;;;;16.23;2.95;;;;;;;;;;4903597;29;20694;-72
2022/10/29 15:02:20;;;;;;;14.32;3.28;;;;;;;;;;4901730;29;20063;-73
2022/10/29 15:04:48;;;;;;;16.38;2.80;;;;;;;;;;4898427;28;20056;-69